Salesopolis, Brazil
Current Conditions -  °F | °C
As of 4:00 PM on Monday 24 Nov 2014 (Local Time) from SBSJ Reporting Station
Broken Clouds Broken Clouds  
Wind Chill: 86°   Ceiling: 2000
Heat Index: 88°   Visibility: 6mi
Dew Point: 66°   Wind: 15mph
Humidity: 51%   Direction: 120°ESE
Pressure: 29.94"   Gusts: NA
Location:  23.53°S, 45.85°W
Report Text: SBSJ 241800Z 12013KT 9999 BKN020 FEW030TCU BKN090 30/19 Q1014
Loading
Personal Weather Stations






























Interactive Weather Map New forecast layout! Learn more

10-Day Weather Forecast

Advertisements
Track Severe Weather on mobile